PWSweather.com
Personal Weather Stations
Station Observations
WISCHPK61
Green Bay Schmitt Park, Green Bay, WI 54311

Green Bay Schmitt ParkGreen Bay, WI 54311

Lat: 44.514277, Lon: -87.935067

Elevation: 735

Station Type: Acu Rite Pro Weather Center model 02032C

http://greenbayweathercam.com

High Low Average
Temperature 61.0°F16.1°C 49.3°F9.6°C 54.7°F12.6°C
Dew Point 53.2°F11.8°C 46.7°F8.2°C 50.6°F10.3°C
Winds 1.2 mph 1.9 kmh Calm Calm Calm SCalm S
Wind Gusts 4.6 mph7.4 kmh -- --
Humidity 97% 73% 86%
Pressure 29.53 in1000.0 mb 29.44 in997.0 mb -
Precipitation 0.00 in0.0 mm - -
Hour Temp Dew Point Humidity Winds Wind Gusts Pressure Precip Precip Rate Daily Precip Total
12:00 AM 49.3°F9.6°C 46.7°F8.2°C 91% Calm Calm -- 29.48 in998.3 mb - 0.00 in0.0 mm 0.00 in0.0 mm
12:15 AM 49.5°F9.7°C 47.0°F8.3°C 91% Calm Calm -- 29.48 in998.3 mb - 0.00 in0.0 mm 0.00 in0.0 mm
12:30 AM 49.6°F9.8°C 47.1°F8.4°C 91% Calm Calm -- 29.47 in998.0 mb - 0.00 in0.0 mm 0.00 in0.0 mm
12:45 AM 49.8°F9.9°C 46.9°F8.3°C 90% Calm Calm -- 29.48 in998.3 mb - 0.00 in0.0 mm 0.00 in0.0 mm
01:00 AM 49.8°F9.9°C 47.0°F8.3°C 90% Calm Calm -- 29.48 in998.3 mb - 0.00 in0.0 mm 0.00 in0.0 mm
01:15 AM 50.0°F10.0°C 47.5°F8.6°C 91% Calm Calm -- 29.46 in997.6 mb - 0.00 in0.0 mm 0.00 in0.0 mm
01:30 AM 50.2°F10.1°C 47.7°F8.7°C 91% Calm Calm -- 29.46 in997.6 mb - 0.00 in0.0 mm 0.00 in0.0 mm
01:45 AM 50.4°F10.2°C 47.9°F8.8°C 91% Calm Calm -- 29.46 in997.6 mb - 0.00 in0.0 mm 0.00 in0.0 mm
02:00 AM 50.4°F10.2°C 47.9°F8.8°C 91% Calm Calm -- 29.45 in997.3 mb - 0.00 in0.0 mm 0.00 in0.0 mm
02:15 AM 50.5°F10.3°C 48.0°F8.9°C 91% Calm Calm -- 29.45 in997.3 mb - 0.00 in0.0 mm 0.00 in0.0 mm
02:30 AM 50.7°F10.4°C 48.2°F9.0°C 91% Calm Calm -- 29.45 in997.3 mb - 0.00 in0.0 mm 0.00 in0.0 mm
02:45 AM 50.7°F10.4°C 48.2°F9.0°C 91% Calm Calm -- 29.45 in997.3 mb - 0.00 in0.0 mm 0.00 in0.0 mm
03:00 AM 50.9°F10.5°C 47.8°F8.8°C 89% Calm Calm -- 29.45 in997.3 mb - 0.00 in0.0 mm 0.00 in0.0 mm
03:15 AM 50.9°F10.5°C 47.8°F8.8°C 89% Calm Calm -- 29.46 in997.6 mb - 0.00 in0.0 mm 0.00 in0.0 mm
03:30 AM 50.9°F10.5°C 47.5°F8.6°C 88% Calm Calm -- 29.44 in997.0 mb - 0.00 in0.0 mm 0.00 in0.0 mm
03:45 AM 50.9°F10.5°C 47.2°F8.4°C 87% Calm Calm -- 29.45 in997.3 mb - 0.00 in0.0 mm 0.00 in0.0 mm
04:00 AM 50.9°F10.5°C 47.5°F8.6°C 88% Calm Calm -- 29.45 in997.3 mb - 0.00 in0.0 mm 0.00 in0.0 mm
04:15 AM 50.9°F10.5°C 47.5°F8.6°C 88% Calm Calm -- 29.46 in997.6 mb - 0.00 in0.0 mm 0.00 in0.0 mm
04:30 AM 51.1°F10.6°C 47.7°F8.7°C 88% Calm Calm -- 29.46 in997.6 mb - 0.00 in0.0 mm 0.00 in0.0 mm
04:45 AM 51.1°F10.6°C 48.0°F8.9°C 89% Calm Calm -- 29.46 in997.6 mb - 0.00 in0.0 mm 0.00 in0.0 mm
05:00 AM 51.1°F10.6°C 48.3°F9.1°C 90% Calm Calm 1.2 mph1.9 kmh 29.46 in997.6 mb - 0.00 in0.0 mm 0.00 in0.0 mm
05:15 AM 51.3°F10.7°C 48.8°F9.3°C 91% Calm Calm -- 29.46 in997.6 mb - 0.00 in0.0 mm 0.00 in0.0 mm
05:30 AM 51.3°F10.7°C 49.1°F9.5°C 92% Calm Calm -- 29.46 in997.6 mb - 0.00 in0.0 mm 0.00 in0.0 mm
05:45 AM 51.3°F10.7°C 49.1°F9.5°C 92% Calm Calm -- 29.46 in997.6 mb - 0.00 in0.0 mm 0.00 in0.0 mm
06:00 AM 51.3°F10.7°C 49.3°F9.6°C 93% Calm Calm -- 29.46 in997.6 mb - 0.00 in0.0 mm 0.00 in0.0 mm
06:15 AM 51.3°F10.7°C 49.6°F9.8°C 94% Calm Calm -- 29.47 in998.0 mb - 0.00 in0.0 mm 0.00 in0.0 mm
06:30 AM 51.3°F10.7°C 49.6°F9.8°C 94% Calm Calm -- 29.47 in998.0 mb - 0.00 in0.0 mm 0.00 in0.0 mm
06:45 AM 51.3°F10.7°C 49.6°F9.8°C 94% Calm Calm -- 29.47 in998.0 mb - 0.00 in0.0 mm 0.00 in0.0 mm
07:00 AM 51.3°F10.7°C 49.6°F9.8°C 94% Calm Calm -- 29.48 in998.3 mb - 0.00 in0.0 mm 0.00 in0.0 mm
07:15 AM 51.3°F10.7°C 49.3°F9.6°C 93% Calm Calm -- 29.48 in998.3 mb - 0.00 in0.0 mm 0.00 in0.0 mm
07:30 AM 51.4°F10.8°C 49.4°F9.7°C 93% Calm Calm -- 29.49 in998.6 mb - 0.00 in0.0 mm 0.00 in0.0 mm
07:45 AM 51.6°F10.9°C 49.4°F9.7°C 92% Calm Calm -- 29.49 in998.6 mb - 0.00 in0.0 mm 0.00 in0.0 mm
08:00 AM 52.2°F11.2°C 49.9°F9.9°C 92% Calm Calm -- 29.49 in998.6 mb - 0.00 in0.0 mm 0.00 in0.0 mm
08:15 AM 52.9°F11.6°C 51.2°F10.7°C 94% Calm Calm 1.2 mph1.9 kmh 29.49 in998.6 mb - 0.00 in0.0 mm 0.00 in0.0 mm
08:30 AM 52.7°F11.5°C 51.0°F10.6°C 94% Calm Calm -- 29.49 in998.6 mb - 0.00 in0.0 mm 0.00 in0.0 mm
08:45 AM 53.3°F11.8°C 51.9°F11.1°C 95% Calm Calm -- 29.49 in998.6 mb - 0.00 in0.0 mm 0.00 in0.0 mm
09:00 AM 54.8°F12.7°C 53.1°F11.7°C 94% Calm Calm -- 29.49 in998.6 mb - 0.00 in0.0 mm 0.00 in0.0 mm
09:15 AM 55.2°F12.9°C 53.2°F11.8°C 93% Calm Calm -- 29.49 in998.6 mb - 0.00 in0.0 mm 0.00 in0.0 mm
09:30 AM 55.6°F13.1°C 53.0°F11.7°C 91% Calm Calm -- 29.50 in999.0 mb - 0.00 in0.0 mm 0.00 in0.0 mm
09:45 AM 56.7°F13.7°C 52.6°F11.4°C 86% Calm Calm -- 29.50 in999.0 mb - 0.00 in0.0 mm 0.00 in0.0 mm
10:00 AM 57.4°F14.1°C 52.3°F11.3°C 83% Calm Calm 3.5 mph5.6 kmh 29.50 in999.0 mb - 0.00 in0.0 mm 0.00 in0.0 mm
10:15 AM 57.9°F14.4°C 52.8°F11.6°C 83% Calm Calm -- 29.50 in999.0 mb - 0.00 in0.0 mm 0.00 in0.0 mm
10:30 AM 58.5°F14.7°C 52.4°F11.3°C 80% Calm Calm -- 29.50 in999.0 mb - 0.00 in0.0 mm 0.00 in0.0 mm
10:45 AM 59.2°F15.1°C 52.0°F11.1°C 77% Calm Calm -- 29.50 in999.0 mb - 0.00 in0.0 mm 0.00 in0.0 mm
11:00 AM 59.5°F15.3°C 51.6°F10.9°C 75% 1.2 mph S1.9 kmh S 2.3 mph3.7 kmh 29.50 in999.0 mb - 0.00 in0.0 mm 0.00 in0.0 mm
11:15 AM 59.7°F15.4°C 52.5°F11.4°C 77% Calm Calm -- 29.50 in999.0 mb - 0.00 in0.0 mm 0.00 in0.0 mm
11:30 AM 59.9°F15.5°C 52.3°F11.3°C 76% 1.2 mph SSW1.9 kmh SSW 4.6 mph7.4 kmh 29.50 in999.0 mb - 0.00 in0.0 mm 0.00 in0.0 mm
11:45 AM 59.7°F15.4°C 52.5°F11.4°C 77% Calm Calm 2.3 mph3.7 kmh 29.50 in999.0 mb - 0.00 in0.0 mm 0.00 in0.0 mm
12:00 PM 59.6°F15.3°C 52.0°F11.1°C 76% Calm Calm -- 29.50 in999.0 mb - 0.00 in0.0 mm 0.00 in0.0 mm
12:15 PM 59.7°F15.4°C 51.8°F11.0°C 75% 1.2 mph S1.9 kmh S 2.3 mph3.7 kmh 29.50 in999.0 mb - 0.00 in0.0 mm 0.00 in0.0 mm
12:30 PM 59.5°F15.3°C 51.6°F10.9°C 75% Calm Calm -- 29.50 in999.0 mb - 0.00 in0.0 mm 0.00 in0.0 mm
12:45 PM 59.7°F15.4°C 51.8°F11.0°C 75% Calm Calm -- 29.50 in999.0 mb - 0.00 in0.0 mm 0.00 in0.0 mm
01:00 PM 59.7°F15.4°C 52.1°F11.2°C 76% Calm Calm -- 29.50 in999.0 mb - 0.00 in0.0 mm 0.00 in0.0 mm
01:15 PM 59.9°F15.5°C 52.3°F11.3°C 76% Calm Calm -- 29.50 in999.0 mb - 0.00 in0.0 mm 0.00 in0.0 mm
01:30 PM 60.1°F15.6°C 52.1°F11.2°C 75% Calm Calm -- 29.50 in999.0 mb - 0.00 in0.0 mm 0.00 in0.0 mm
01:45 PM 60.1°F15.6°C 52.5°F11.4°C 76% Calm Calm -- 29.50 in999.0 mb - 0.00 in0.0 mm 0.00 in0.0 mm
02:00 PM 60.1°F15.6°C 52.1°F11.2°C 75% Calm Calm -- 29.50 in999.0 mb - 0.00 in0.0 mm 0.00 in0.0 mm
02:15 PM 60.3°F15.7°C 52.3°F11.3°C 75% Calm Calm -- 29.51 in999.3 mb - 0.00 in0.0 mm 0.00 in0.0 mm
02:30 PM 61.0°F16.1°C 52.7°F11.5°C 74% 1.2 mph SSW1.9 kmh SSW 1.2 mph1.9 kmh 29.51 in999.3 mb - 0.00 in0.0 mm 0.00 in0.0 mm
02:45 PM 60.8°F16.0°C 52.0°F11.1°C 73% Calm Calm -- 29.51 in999.3 mb - 0.00 in0.0 mm 0.00 in0.0 mm
03:00 PM 60.6°F15.9°C 51.9°F11.1°C 73% 1.2 mph SSE1.9 kmh SSE 1.2 mph1.9 kmh 29.51 in999.3 mb - 0.00 in0.0 mm 0.00 in0.0 mm
03:15 PM 60.6°F15.9°C 52.6°F11.4°C 75% Calm Calm -- 29.50 in999.0 mb - 0.00 in0.0 mm 0.00 in0.0 mm
03:30 PM 60.1°F15.6°C 52.5°F11.4°C 76% Calm Calm -- 29.50 in999.0 mb - 0.00 in0.0 mm 0.00 in0.0 mm
03:45 PM 59.9°F15.5°C 52.3°F11.3°C 76% Calm Calm -- 29.51 in999.3 mb - 0.00 in0.0 mm 0.00 in0.0 mm
04:00 PM 59.7°F15.4°C 52.5°F11.4°C 77% Calm Calm -- 29.51 in999.3 mb - 0.00 in0.0 mm 0.00 in0.0 mm
04:15 PM 59.2°F15.1°C 52.7°F11.5°C 79% Calm Calm -- 29.51 in999.3 mb - 0.00 in0.0 mm 0.00 in0.0 mm
04:30 PM 58.6°F14.8°C 52.1°F11.2°C 79% Calm Calm -- 29.51 in999.3 mb - 0.00 in0.0 mm 0.00 in0.0 mm
04:45 PM 58.2°F14.6°C 52.0°F11.1°C 80% Calm Calm -- 29.51 in999.3 mb - 0.00 in0.0 mm 0.00 in0.0 mm
05:00 PM 57.9°F14.4°C 52.1°F11.2°C 81% Calm Calm -- 29.52 in999.7 mb - 0.00 in0.0 mm 0.00 in0.0 mm
05:15 PM 57.6°F14.2°C 52.1°F11.2°C 82% Calm Calm -- 29.52 in999.7 mb - 0.00 in0.0 mm 0.00 in0.0 mm
05:30 PM 57.2°F14.0°C 52.4°F11.3°C 84% Calm Calm -- 29.52 in999.7 mb - 0.00 in0.0 mm 0.00 in0.0 mm
05:45 PM 56.8°F13.8°C 52.0°F11.1°C 84% Calm Calm -- 29.52 in999.7 mb - 0.00 in0.0 mm 0.00 in0.0 mm
06:00 PM 56.7°F13.7°C 51.9°F11.1°C 84% Calm Calm -- 29.52 in999.7 mb - 0.00 in0.0 mm 0.00 in0.0 mm
06:15 PM 56.3°F13.5°C 51.8°F11.0°C 85% Calm Calm -- 29.53 in1000.0 mb - 0.00 in0.0 mm 0.00 in0.0 mm
06:30 PM 55.8°F13.2°C 51.7°F10.9°C 86% Calm Calm -- 29.53 in1000.0 mb - 0.00 in0.0 mm 0.00 in0.0 mm
06:45 PM 55.6°F13.1°C 51.8°F11.0°C 87% Calm Calm -- 29.53 in1000.0 mb - 0.00 in0.0 mm 0.00 in0.0 mm
07:00 PM 55.4°F13.0°C 51.6°F10.9°C 87% Calm Calm -- 29.53 in1000.0 mb - 0.00 in0.0 mm 0.00 in0.0 mm
07:15 PM 55.4°F13.0°C 51.9°F11.1°C 88% Calm Calm -- 29.53 in1000.0 mb - 0.00 in0.0 mm 0.00 in0.0 mm
07:30 PM 55.4°F13.0°C 51.9°F11.1°C 88% Calm Calm -- 29.53 in1000.0 mb - 0.00 in0.0 mm 0.00 in0.0 mm
07:45 PM 55.2°F12.9°C 51.7°F10.9°C 88% Calm Calm -- 29.53 in1000.0 mb - 0.00 in0.0 mm 0.00 in0.0 mm
08:00 PM 55.2°F12.9°C 51.7°F10.9°C 88% Calm Calm -- 29.53 in1000.0 mb - 0.00 in0.0 mm 0.00 in0.0 mm
08:15 PM 55.2°F12.9°C 51.7°F10.9°C 88% Calm Calm -- 29.53 in1000.0 mb - 0.00 in0.0 mm 0.00 in0.0 mm
08:30 PM 55.0°F12.8°C 51.5°F10.8°C 88% Calm Calm -- 29.53 in1000.0 mb - 0.00 in0.0 mm 0.00 in0.0 mm
08:45 PM 54.9°F12.7°C 51.4°F10.8°C 88% Calm Calm -- 29.53 in1000.0 mb - 0.00 in0.0 mm 0.00 in0.0 mm
09:00 PM 54.3°F12.4°C 51.1°F10.6°C 89% Calm Calm -- 29.52 in999.7 mb - 0.00 in0.0 mm 0.00 in0.0 mm
09:15 PM 53.8°F12.1°C 51.2°F10.7°C 91% Calm Calm -- 29.52 in999.7 mb - 0.00 in0.0 mm 0.00 in0.0 mm
09:30 PM 53.2°F11.8°C 50.9°F10.5°C 92% Calm Calm -- 29.52 in999.7 mb - 0.00 in0.0 mm 0.00 in0.0 mm
09:45 PM 52.6°F11.4°C 50.7°F10.4°C 93% Calm Calm -- 29.52 in999.7 mb - 0.00 in0.0 mm 0.00 in0.0 mm
10:00 PM 52.2°F11.2°C 50.5°F10.3°C 94% Calm Calm -- 29.52 in999.7 mb - 0.00 in0.0 mm 0.00 in0.0 mm
10:15 PM 51.6°F10.9°C 49.9°F9.9°C 94% Calm Calm -- 29.52 in999.7 mb - 0.00 in0.0 mm 0.00 in0.0 mm
10:30 PM 51.3°F10.7°C 49.9°F9.9°C 95% Calm Calm -- 29.52 in999.7 mb - 0.00 in0.0 mm 0.00 in0.0 mm
10:45 PM 51.1°F10.6°C 50.0°F10.0°C 96% Calm Calm -- 29.51 in999.3 mb - 0.00 in0.0 mm 0.00 in0.0 mm
11:00 PM 50.9°F10.5°C 49.8°F9.9°C 96% Calm Calm -- 29.52 in999.7 mb - 0.00 in0.0 mm 0.00 in0.0 mm
11:15 PM 51.1°F10.6°C 50.3°F10.2°C 97% Calm Calm -- 29.51 in999.3 mb - 0.00 in0.0 mm 0.00 in0.0 mm
11:30 PM 51.1°F10.6°C 50.3°F10.2°C 97% Calm Calm -- 29.51 in999.3 mb - 0.00 in0.0 mm 0.00 in0.0 mm
11:45 PM 51.1°F10.6°C 50.3°F10.2°C 97% Calm Calm -- 29.51 in999.3 mb - 0.00 in0.0 mm 0.00 in0.0 mm